sensor_id;sensor_type;location;lat;lon;timestamp;temperature;humidity
70708;SHT30;58277;47.316;18.908;2023-03-23T00:02:02;7.95;74.78
70708;SHT30;58277;47.316;18.908;2023-03-23T00:04:24;7.94;74.90
70708;SHT30;58277;47.316;18.908;2023-03-23T00:06:48;7.87;75.16
70708;SHT30;58277;47.316;18.908;2023-03-23T00:09:12;7.85;75.19
70708;SHT30;58277;47.316;18.908;2023-03-23T00:11:33;7.91;74.70
70708;SHT30;58277;47.316;18.908;2023-03-23T00:13:57;7.84;74.77
70708;SHT30;58277;47.316;18.908;2023-03-23T00:16:20;7.84;74.76
70708;SHT30;58277;47.316;18.908;2023-03-23T00:18:51;7.73;74.62
70708;SHT30;58277;47.316;18.908;2023-03-23T00:21:13;7.67;74.43
70708;SHT30;58277;47.316;18.908;2023-03-23T00:23:35;7.40;75.25
70708;SHT30;58277;47.316;18.908;2023-03-23T00:25:56;7.33;75.53
70708;SHT30;58277;47.316;18.908;2023-03-23T00:28:19;7.33;75.90
70708;SHT30;58277;47.316;18.908;2023-03-23T00:30:45;7.37;75.28
70708;SHT30;58277;47.316;18.908;2023-03-23T00:33:08;7.19;75.86
70708;SHT30;58277;47.316;18.908;2023-03-23T00:35:29;7.14;76.16
70708;SHT30;58277;47.316;18.908;2023-03-23T00:37:53;7.12;76.11
70708;SHT30;58277;47.316;18.908;2023-03-23T00:40:16;7.11;76.18
70708;SHT30;58277;47.316;18.908;2023-03-23T00:42:38;7.15;76.35
70708;SHT30;58277;47.316;18.908;2023-03-23T00:45:00;7.25;75.88
70708;SHT30;58277;47.316;18.908;2023-03-23T00:47:22;7.32;75.76
70708;SHT30;58277;47.316;18.908;2023-03-23T00:49:43;7.28;75.85
70708;SHT30;58277;47.316;18.908;2023-03-23T00:52:06;7.18;76.46
70708;SHT30;58277;47.316;18.908;2023-03-23T00:54:28;7.23;76.57
70708;SHT30;58277;47.316;18.908;2023-03-23T00:56:50;7.23;76.65
70708;SHT30;58277;47.316;18.908;2023-03-23T00:59:12;7.26;76.42
70708;SHT30;58277;47.316;18.908;2023-03-23T01:01:34;7.25;76.56
70708;SHT30;58277;47.316;18.908;2023-03-23T01:03:59;7.23;76.36
70708;SHT30;58277;47.316;18.908;2023-03-23T01:06:25;7.14;77.09
70708;SHT30;58277;47.316;18.908;2023-03-23T01:08:47;7.02;77.16
70708;SHT30;58277;47.316;18.908;2023-03-23T01:11:14;7.04;77.20
70708;SHT30;58277;47.316;18.908;2023-03-23T01:13:37;7.11;76.93
70708;SHT30;58277;47.316;18.908;2023-03-23T01:15:58;7.12;76.46
70708;SHT30;58277;47.316;18.908;2023-03-23T01:18:20;7.08;76.79
70708;SHT30;58277;47.316;18.908;2023-03-23T01:20:42;6.99;76.70
70708;SHT30;58277;47.316;18.908;2023-03-23T01:23:04;6.94;77.13
70708;SHT30;58277;47.316;18.908;2023-03-23T01:25:31;7.01;76.99
70708;SHT30;58277;47.316;18.908;2023-03-23T01:27:53;6.94;77.43
70708;SHT30;58277;47.316;18.908;2023-03-23T01:30:15;6.90;77.37
70708;SHT30;58277;47.316;18.908;2023-03-23T01:32:37;6.97;77.70
70708;SHT30;58277;47.316;18.908;2023-03-23T01:34:59;7.02;77.80
70708;SHT30;58277;47.316;18.908;2023-03-23T01:37:21;7.05;77.82
70708;SHT30;58277;47.316;18.908;2023-03-23T01:39:48;7.05;78.13
70708;SHT30;58277;47.316;18.908;2023-03-23T01:42:11;7.05;78.38
70708;SHT30;58277;47.316;18.908;2023-03-23T01:46:59;6.95;79.68
70708;SHT30;58277;47.316;18.908;2023-03-23T01:49:25;6.94;79.70
70708;SHT30;58277;47.316;18.908;2023-03-23T01:51:53;6.88;80.74
70708;SHT30;58277;47.316;18.908;2023-03-23T01:54:18;6.92;81.04
70708;SHT30;58277;47.316;18.908;2023-03-23T01:56:47;7.01;80.90
70708;SHT30;58277;47.316;18.908;2023-03-23T01:59:11;7.05;80.88
70708;SHT30;58277;47.316;18.908;2023-03-23T02:01:35;6.94;81.40
70708;SHT30;58277;47.316;18.908;2023-03-23T02:04:00;6.94;81.62
70708;SHT30;58277;47.316;18.908;2023-03-23T02:06:22;6.94;81.92
70708;SHT30;58277;47.316;18.908;2023-03-23T02:09:12;6.98;81.36
70708;SHT30;58277;47.316;18.908;2023-03-23T02:11:35;6.99;81.38
70708;SHT30;58277;47.316;18.908;2023-03-23T02:13:57;7.07;80.90
70708;SHT30;58277;47.316;18.908;2023-03-23T02:19:07;7.01;80.67
70708;SHT30;58277;47.316;18.908;2023-03-23T02:22:13;6.92;81.16
70708;SHT30;58277;47.316;18.908;2023-03-23T02:30:27;6.97;80.82
70708;SHT30;58277;47.316;18.908;2023-03-23T02:33:29;6.99;80.59
70708;SHT30;58277;47.316;18.908;2023-03-23T02:36:12;6.98;80.77
70708;SHT30;58277;47.316;18.908;2023-03-23T02:41:00;6.94;81.37
70708;SHT30;58277;47.316;18.908;2023-03-23T02:43:25;6.92;81.26
70708;SHT30;58277;47.316;18.908;2023-03-23T02:45:48;6.91;82.71
70708;SHT30;58277;47.316;18.908;2023-03-23T02:48:15;6.88;83.09
70708;SHT30;58277;47.316;18.908;2023-03-23T02:50:45;6.81;83.48
70708;SHT30;58277;47.316;18.908;2023-03-23T02:53:10;6.77;83.54
70708;SHT30;58277;47.316;18.908;2023-03-23T02:55:34;6.73;83.64
70708;SHT30;58277;47.316;18.908;2023-03-23T02:57:59;6.71;83.27
70708;SHT30;58277;47.316;18.908;2023-03-23T03:00:24;6.69;83.28
70708;SHT30;58277;47.316;18.908;2023-03-23T03:02:49;6.74;82.94
70708;SHT30;58277;47.316;18.908;2023-03-23T03:08:36;6.76;82.69
70708;SHT30;58277;47.316;18.908;2023-03-23T03:11:05;6.74;82.44
70708;SHT30;58277;47.316;18.908;2023-03-23T03:21:23;6.73;81.23
70708;SHT30;58277;47.316;18.908;2023-03-23T03:23:49;6.66;81.36
70708;SHT30;58277;47.316;18.908;2023-03-23T03:26:13;6.70;81.33
70708;SHT30;58277;47.316;18.908;2023-03-23T03:28:47;6.67;81.54
70708;SHT30;58277;47.316;18.908;2023-03-23T03:31:11;6.77;81.24
70708;SHT30;58277;47.316;18.908;2023-03-23T03:33:33;6.71;81.44
70708;SHT30;58277;47.316;18.908;2023-03-23T03:35:59;6.76;81.43
70708;SHT30;58277;47.316;18.908;2023-03-23T03:38:21;6.64;81.45
70708;SHT30;58277;47.316;18.908;2023-03-23T03:40:44;6.63;81.69
70708;SHT30;58277;47.316;18.908;2023-03-23T03:43:06;6.61;81.79
70708;SHT30;58277;47.316;18.908;2023-03-23T03:45:28;6.63;81.75
70708;SHT30;58277;47.316;18.908;2023-03-23T03:47:50;6.53;81.97
70708;SHT30;58277;47.316;18.908;2023-03-23T03:50:12;6.47;82.35
70708;SHT30;58277;47.316;18.908;2023-03-23T03:52:35;6.46;82.21
70708;SHT30;58277;47.316;18.908;2023-03-23T03:54:57;6.42;82.09
70708;SHT30;58277;47.316;18.908;2023-03-23T03:57:19;6.47;81.91
70708;SHT30;58277;47.316;18.908;2023-03-23T04:00:15;6.44;81.65
70708;SHT30;58277;47.316;18.908;2023-03-23T04:02:43;6.46;81.76
70708;SHT30;58277;47.316;18.908;2023-03-23T04:05:06;6.47;81.63
70708;SHT30;58277;47.316;18.908;2023-03-23T04:07:28;6.40;81.74
70708;SHT30;58277;47.316;18.908;2023-03-23T04:09:53;6.37;82.14
70708;SHT30;58277;47.316;18.908;2023-03-23T04:12:16;6.34;82.35
70708;SHT30;58277;47.316;18.908;2023-03-23T04:14:52;6.36;82.75
70708;SHT30;58277;47.316;18.908;2023-03-23T04:17:14;6.44;82.16
70708;SHT30;58277;47.316;18.908;2023-03-23T04:19:37;6.37;82.49
70708;SHT30;58277;47.316;18.908;2023-03-23T04:22:00;6.32;82.70
70708;SHT30;58277;47.316;18.908;2023-03-23T04:24:25;6.25;83.11
70708;SHT30;58277;47.316;18.908;2023-03-23T04:26:50;6.21;83.55
70708;SHT30;58277;47.316;18.908;2023-03-23T04:29:20;6.13;84.13
70708;SHT30;58277;47.316;18.908;2023-03-23T04:32:09;6.11;84.19
70708;SHT30;58277;47.316;18.908;2023-03-23T04:34:35;6.09;84.38
70708;SHT30;58277;47.316;18.908;2023-03-23T04:36:57;6.15;84.10
70708;SHT30;58277;47.316;18.908;2023-03-23T04:39:22;6.13;84.02
70708;SHT30;58277;47.316;18.908;2023-03-23T04:41:46;6.15;84.24
70708;SHT30;58277;47.316;18.908;2023-03-23T04:44:38;6.13;84.27
70708;SHT30;58277;47.316;18.908;2023-03-23T04:47:08;6.11;84.55
70708;SHT30;58277;47.316;18.908;2023-03-23T04:49:37;6.06;84.60
70708;SHT30;58277;47.316;18.908;2023-03-23T04:52:10;6.16;84.13
70708;SHT30;58277;47.316;18.908;2023-03-23T04:54:38;6.25;84.08
70708;SHT30;58277;47.316;18.908;2023-03-23T04:57:00;6.25;83.99
70708;SHT30;58277;47.316;18.908;2023-03-23T04:59:22;6.26;83.83
70708;SHT30;58277;47.316;18.908;2023-03-23T05:02:10;6.25;83.95
70708;SHT30;58277;47.316;18.908;2023-03-23T05:04:32;6.36;83.64
70708;SHT30;58277;47.316;18.908;2023-03-23T05:07:07;6.34;83.52
70708;SHT30;58277;47.316;18.908;2023-03-23T05:09:35;6.30;83.60
70708;SHT30;58277;47.316;18.908;2023-03-23T05:11:57;6.36;83.40
70708;SHT30;58277;47.316;18.908;2023-03-23T05:14:24;6.40;83.08
70708;SHT30;58277;47.316;18.908;2023-03-23T05:16:58;6.43;83.04
70708;SHT30;58277;47.316;18.908;2023-03-23T05:19:20;6.50;82.67
70708;SHT30;58277;47.316;18.908;2023-03-23T05:21:43;6.76;82.07
70708;SHT30;58277;47.316;18.908;2023-03-23T05:24:06;6.83;81.29
70708;SHT30;58277;47.316;18.908;2023-03-23T05:26:28;7.01;80.60
70708;SHT30;58277;47.316;18.908;2023-03-23T05:28:56;7.19;79.95
70708;SHT30;58277;47.316;18.908;2023-03-23T05:31:23;7.47;79.03
70708;SHT30;58277;47.316;18.908;2023-03-23T05:33:47;7.56;78.53
70708;SHT30;58277;47.316;18.908;2023-03-23T05:36:19;7.88;77.39
70708;SHT30;58277;47.316;18.908;2023-03-23T05:39:01;7.88;77.05
70708;SHT30;58277;47.316;18.908;2023-03-23T05:41:41;8.09;76.53
70708;SHT30;58277;47.316;18.908;2023-03-23T05:44:03;8.97;74.24
70708;SHT30;58277;47.316;18.908;2023-03-23T05:46:41;9.86;70.64
70708;SHT30;58277;47.316;18.908;2023-03-23T05:49:04;10.88;66.81
70708;SHT30;58277;47.316;18.908;2023-03-23T05:51:32;11.50;63.72
70708;SHT30;58277;47.316;18.908;2023-03-23T05:53:54;12.00;61.61
70708;SHT30;58277;47.316;18.908;2023-03-23T05:56:16;12.61;60.14
70708;SHT30;58277;47.316;18.908;2023-03-23T05:58:56;13.40;58.28
70708;SHT30;58277;47.316;18.908;2023-03-23T06:01:18;12.93;57.83
70708;SHT30;58277;47.316;18.908;2023-03-23T06:03:40;12.51;59.53
70708;SHT30;58277;47.316;18.908;2023-03-23T06:06:21;11.69;61.37
70708;SHT30;58277;47.316;18.908;2023-03-23T06:08:51;10.90;64.55
70708;SHT30;58277;47.316;18.908;2023-03-23T06:11:20;10.72;64.84
70708;SHT30;58277;47.316;18.908;2023-03-23T06:13:58;10.55;64.99
70708;SHT30;58277;47.316;18.908;2023-03-23T06:16:20;10.56;64.94
70708;SHT30;58277;47.316;18.908;2023-03-23T06:18:51;10.52;65.65
70708;SHT30;58277;47.316;18.908;2023-03-23T06:21:24;10.96;65.63
70708;SHT30;58277;47.316;18.908;2023-03-23T06:23:57;11.45;64.04
70708;SHT30;58277;47.316;18.908;2023-03-23T06:26:27;11.45;64.32
70708;SHT30;58277;47.316;18.908;2023-03-23T06:28:52;10.99;65.31
70708;SHT30;58277;47.316;18.908;2023-03-23T06:31:14;11.03;65.37
70708;SHT30;58277;47.316;18.908;2023-03-23T06:33:39;11.55;63.62
70708;SHT30;58277;47.316;18.908;2023-03-23T06:36:20;12.55;59.53
70708;SHT30;58277;47.316;18.908;2023-03-23T06:39:00;13.22;57.81
70708;SHT30;58277;47.316;18.908;2023-03-23T06:41:38;13.98;55.49
70708;SHT30;58277;47.316;18.908;2023-03-23T06:44:00;14.04;53.94
70708;SHT30;58277;47.316;18.908;2023-03-23T06:46:25;14.37;53.49
70708;SHT30;58277;47.316;18.908;2023-03-23T06:48:47;13.81;54.30
70708;SHT30;58277;47.316;18.908;2023-03-23T06:51:13;13.89;54.64
70708;SHT30;58277;47.316;18.908;2023-03-23T06:53:37;14.85;53.26
70708;SHT30;58277;47.316;18.908;2023-03-23T06:56:00;15.52;51.00
70708;SHT30;58277;47.316;18.908;2023-03-23T06:58:24;14.91;52.16
70708;SHT30;58277;47.316;18.908;2023-03-23T07:00:47;14.37;53.26
70708;SHT30;58277;47.316;18.908;2023-03-23T07:03:11;14.32;53.43
70708;SHT30;58277;47.316;18.908;2023-03-23T07:05:35;14.74;53.15
70708;SHT30;58277;47.316;18.908;2023-03-23T07:08:04;15.40;51.15
70708;SHT30;58277;47.316;18.908;2023-03-23T07:10:36;14.39;52.66
70708;SHT30;58277;47.316;18.908;2023-03-23T07:13:00;14.89;52.34
70708;SHT30;58277;47.316;18.908;2023-03-23T07:15:33;15.06;51.58
70708;SHT30;58277;47.316;18.908;2023-03-23T07:17:55;15.06;51.80
70708;SHT30;58277;47.316;18.908;2023-03-23T07:20:24;15.43;51.13
70708;SHT30;58277;47.316;18.908;2023-03-23T07:22:46;15.87;50.40
70708;SHT30;58277;47.316;18.908;2023-03-23T07:25:21;15.64;50.39
70708;SHT30;58277;47.316;18.908;2023-03-23T07:27:46;16.21;49.52
70708;SHT30;58277;47.316;18.908;2023-03-23T07:30:10;15.11;51.88
70708;SHT30;58277;47.316;18.908;2023-03-23T07:32:32;14.56;53.18
70708;SHT30;58277;47.316;18.908;2023-03-23T07:34:54;15.28;51.53
70708;SHT30;58277;47.316;18.908;2023-03-23T07:37:28;15.26;51.51
70708;SHT30;58277;47.316;18.908;2023-03-23T07:39:52;16.48;48.62
70708;SHT30;58277;47.316;18.908;2023-03-23T07:42:14;15.90;50.10
70708;SHT30;58277;47.316;18.908;2023-03-23T07:44:42;16.93;47.51
70708;SHT30;58277;47.316;18.908;2023-03-23T07:47:07;17.27;46.36
70708;SHT30;58277;47.316;18.908;2023-03-23T07:49:30;16.58;47.91
70708;SHT30;58277;47.316;18.908;2023-03-23T07:52:03;17.15;47.38
70708;SHT30;58277;47.316;18.908;2023-03-23T07:54:24;18.28;44.59
70708;SHT30;58277;47.316;18.908;2023-03-23T07:56:57;18.98;43.22
70708;SHT30;58277;47.316;18.908;2023-03-23T07:59:26;18.59;43.28
70708;SHT30;58277;47.316;18.908;2023-03-23T08:01:52;17.18;47.10
70708;SHT30;58277;47.316;18.908;2023-03-23T08:04:44;17.72;45.48
70708;SHT30;58277;47.316;18.908;2023-03-23T08:07:11;18.11;44.91
70708;SHT30;58277;47.316;18.908;2023-03-23T08:10:03;17.32;46.88
70708;SHT30;58277;47.316;18.908;2023-03-23T08:12:53;17.87;45.84
70708;SHT30;58277;47.316;18.908;2023-03-23T08:15:38;18.17;45.18
70708;SHT30;58277;47.316;18.908;2023-03-23T08:18:15;17.96;45.47
70708;SHT30;58277;47.316;18.908;2023-03-23T08:20:37;18.06;45.55
70708;SHT30;58277;47.316;18.908;2023-03-23T08:23:19;18.58;45.36
70708;SHT30;58277;47.316;18.908;2023-03-23T08:26:01;18.52;44.48
70708;SHT30;58277;47.316;18.908;2023-03-23T08:28:44;18.51;45.67
70708;SHT30;58277;47.316;18.908;2023-03-23T08:31:15;17.87;45.95
70708;SHT30;58277;47.316;18.908;2023-03-23T08:34:08;17.94;46.16
70708;SHT30;58277;47.316;18.908;2023-03-23T08:36:33;17.66;47.15
70708;SHT30;58277;47.316;18.908;2023-03-23T08:39:07;17.68;48.37
70708;SHT30;58277;47.316;18.908;2023-03-23T08:41:50;17.63;45.71
70708;SHT30;58277;47.316;18.908;2023-03-23T08:44:32;17.11;46.70
70708;SHT30;58277;47.316;18.908;2023-03-23T08:47:24;17.38;47.30
70708;SHT30;58277;47.316;18.908;2023-03-23T08:50:15;17.56;47.07
70708;SHT30;58277;47.316;18.908;2023-03-23T08:52:59;17.51;46.60
70708;SHT30;58277;47.316;18.908;2023-03-23T08:55:38;17.68;45.94
70708;SHT30;58277;47.316;18.908;2023-03-23T08:58:30;17.89;46.58
70708;SHT30;58277;47.316;18.908;2023-03-23T09:01:01;17.85;46.42
70708;SHT30;58277;47.316;18.908;2023-03-23T09:03:49;17.86;45.66
70708;SHT30;58277;47.316;18.908;2023-03-23T09:06:52;17.91;46.01
70708;SHT30;58277;47.316;18.908;2023-03-23T09:09:14;17.94;46.23
70708;SHT30;58277;47.316;18.908;2023-03-23T09:11:40;18.21;46.09
70708;SHT30;58277;47.316;18.908;2023-03-23T09:14:24;18.68;44.63
70708;SHT30;58277;47.316;18.908;2023-03-23T09:17:12;18.68;44.61
70708;SHT30;58277;47.316;18.908;2023-03-23T09:19:39;18.76;44.45
70708;SHT30;58277;47.316;18.908;2023-03-23T09:22:01;18.96;44.78
70708;SHT30;58277;47.316;18.908;2023-03-23T09:24:24;18.95;44.50
70708;SHT30;58277;47.316;18.908;2023-03-23T09:26:46;18.93;44.73
70708;SHT30;58277;47.316;18.908;2023-03-23T09:29:09;19.14;43.41
70708;SHT30;58277;47.316;18.908;2023-03-23T09:31:32;19.00;43.57
70708;SHT30;58277;47.316;18.908;2023-03-23T09:33:54;18.99;44.23
70708;SHT30;58277;47.316;18.908;2023-03-23T09:36:19;18.62;44.88
70708;SHT30;58277;47.316;18.908;2023-03-23T09:38:42;18.45;45.75
70708;SHT30;58277;47.316;18.908;2023-03-23T09:49:46;20.08;42.08
70708;SHT30;58277;47.316;18.908;2023-03-23T09:52:15;20.40;42.01
70708;SHT30;58277;47.316;18.908;2023-03-23T09:54:43;20.67;41.92
70708;SHT30;58277;47.316;18.908;2023-03-23T10:02:43;21.40;39.38
70708;SHT30;58277;47.316;18.908;2023-03-23T10:05:34;21.46;37.54
70708;SHT30;58277;47.316;18.908;2023-03-23T10:07:59;21.23;37.89
70708;SHT30;58277;47.316;18.908;2023-03-23T10:13:23;21.87;37.01
70708;SHT30;58277;47.316;18.908;2023-03-23T10:15:47;21.98;37.75
70708;SHT30;58277;47.316;18.908;2023-03-23T10:18:19;22.21;35.16
70708;SHT30;58277;47.316;18.908;2023-03-23T10:20:48;22.67;36.19
70708;SHT30;58277;47.316;18.908;2023-03-23T10:28:59;22.53;34.81
70708;SHT30;58277;47.316;18.908;2023-03-23T10:31:27;22.53;34.09
70708;SHT30;58277;47.316;18.908;2023-03-23T10:34:01;22.63;34.78
70708;SHT30;58277;47.316;18.908;2023-03-23T10:41:19;23.00;33.93
70708;SHT30;58277;47.316;18.908;2023-03-23T10:43:43;23.07;33.94
70708;SHT30;58277;47.316;18.908;2023-03-23T10:49:07;23.70;32.26
70708;SHT30;58277;47.316;18.908;2023-03-23T10:51:37;23.99;31.89
70708;SHT30;58277;47.316;18.908;2023-03-23T10:54:03;24.14;31.80
70708;SHT30;58277;47.316;18.908;2023-03-23T10:56:29;24.10;32.00
70708;SHT30;58277;47.316;18.908;2023-03-23T10:58:58;23.75;31.65
70708;SHT30;58277;47.316;18.908;2023-03-23T11:01:32;23.58;31.96
70708;SHT30;58277;47.316;18.908;2023-03-23T11:03:54;23.39;31.96
70708;SHT30;58277;47.316;18.908;2023-03-23T11:06:33;23.38;32.81
70708;SHT30;58277;47.316;18.908;2023-03-23T11:09:10;23.14;32.64
70708;SHT30;58277;47.316;18.908;2023-03-23T11:11:42;22.67;33.97
70708;SHT30;58277;47.316;18.908;2023-03-23T11:14:44;22.87;33.16
70708;SHT30;58277;47.316;18.908;2023-03-23T11:17:21;22.83;33.73
70708;SHT30;58277;47.316;18.908;2023-03-23T11:19:43;22.87;33.48
70708;SHT30;58277;47.316;18.908;2023-03-23T11:24:27;23.24;33.13
70708;SHT30;58277;47.316;18.908;2023-03-23T11:26:51;23.51;33.38
70708;SHT30;58277;47.316;18.908;2023-03-23T11:29:18;23.45;32.95
70708;SHT30;58277;47.316;18.908;2023-03-23T11:31:44;23.28;34.21
70708;SHT30;58277;47.316;18.908;2023-03-23T11:34:16;23.29;33.67
70708;SHT30;58277;47.316;18.908;2023-03-23T11:37:06;23.42;33.08
70708;SHT30;58277;47.316;18.908;2023-03-23T11:39:31;23.34;33.24
70708;SHT30;58277;47.316;18.908;2023-03-23T11:41:55;23.17;34.05
70708;SHT30;58277;47.316;18.908;2023-03-23T11:44:19;23.14;33.91
70708;SHT30;58277;47.316;18.908;2023-03-23T11:46:59;23.31;33.10
70708;SHT30;58277;47.316;18.908;2023-03-23T11:49:34;22.97;33.67
70708;SHT30;58277;47.316;18.908;2023-03-23T11:52:05;22.73;33.91
70708;SHT30;58277;47.316;18.908;2023-03-23T11:54:37;22.77;33.68
70708;SHT30;58277;47.316;18.908;2023-03-23T11:57:07;22.87;34.01
70708;SHT30;58277;47.316;18.908;2023-03-23T11:59:33;22.70;34.05
70708;SHT30;58277;47.316;18.908;2023-03-23T12:14:35;22.67;34.20
70708;SHT30;58277;47.316;18.908;2023-03-23T12:27:51;21.91;35.42
70708;SHT30;58277;47.316;18.908;2023-03-23T12:30:53;21.77;34.98
70708;SHT30;58277;47.316;18.908;2023-03-23T12:33:37;21.69;36.30
70708;SHT30;58277;47.316;18.908;2023-03-23T12:44:08;21.57;36.36
70708;SHT30;58277;47.316;18.908;2023-03-23T12:49:50;21.49;36.16
70708;SHT30;58277;47.316;18.908;2023-03-23T12:52:28;21.59;36.42
70708;SHT30;58277;47.316;18.908;2023-03-23T13:03:37;21.64;35.94
70708;SHT30;58277;47.316;18.908;2023-03-23T13:06:37;21.66;36.37
70708;SHT30;58277;47.316;18.908;2023-03-23T13:11:48;21.86;35.89
70708;SHT30;58277;47.316;18.908;2023-03-23T13:14:24;21.98;35.51
70708;SHT30;58277;47.316;18.908;2023-03-23T13:17:01;22.07;36.08
70708;SHT30;58277;47.316;18.908;2023-03-23T13:19:51;22.12;34.98
70708;SHT30;58277;47.316;18.908;2023-03-23T13:22:27;22.11;34.80
70708;SHT30;58277;47.316;18.908;2023-03-23T13:24:57;22.05;35.11
70708;SHT30;58277;47.316;18.908;2023-03-23T13:27:24;22.12;35.23
70708;SHT30;58277;47.316;18.908;2023-03-23T13:30:18;22.12;35.24
70708;SHT30;58277;47.316;18.908;2023-03-23T13:32:45;22.24;34.69
70708;SHT30;58277;47.316;18.908;2023-03-23T13:35:13;22.35;34.64
70708;SHT30;58277;47.316;18.908;2023-03-23T13:37:45;22.39;34.71
70708;SHT30;58277;47.316;18.908;2023-03-23T13:42:32;22.49;34.39
70708;SHT30;58277;47.316;18.908;2023-03-23T13:47:36;22.48;34.46
70708;SHT30;58277;47.316;18.908;2023-03-23T13:50:01;22.39;34.42
70708;SHT30;58277;47.316;18.908;2023-03-23T13:57:36;22.09;35.57
70708;SHT30;58277;47.316;18.908;2023-03-23T14:00:10;21.77;35.51
70708;SHT30;58277;47.316;18.908;2023-03-23T14:02:39;21.60;36.05
70708;SHT30;58277;47.316;18.908;2023-03-23T14:07:57;21.86;36.41
70708;SHT30;58277;47.316;18.908;2023-03-23T14:10:31;21.97;35.94
70708;SHT30;58277;47.316;18.908;2023-03-23T14:12:53;22.01;36.13
70708;SHT30;58277;47.316;18.908;2023-03-23T14:15:15;22.09;35.28
70708;SHT30;58277;47.316;18.908;2023-03-23T14:17:42;22.21;35.65
70708;SHT30;58277;47.316;18.908;2023-03-23T14:20:05;22.19;36.69
70708;SHT30;58277;47.316;18.908;2023-03-23T14:22:35;21.98;36.06
70708;SHT30;58277;47.316;18.908;2023-03-23T14:25:18;21.93;36.37
70708;SHT30;58277;47.316;18.908;2023-03-23T14:27:43;21.84;36.39
70708;SHT30;58277;47.316;18.908;2023-03-23T14:30:07;21.94;36.69
70708;SHT30;58277;47.316;18.908;2023-03-23T14:32:31;22.01;36.26
70708;SHT30;58277;47.316;18.908;2023-03-23T14:34:53;22.00;35.95
70708;SHT30;58277;47.316;18.908;2023-03-23T14:37:15;22.02;36.52
70708;SHT30;58277;47.316;18.908;2023-03-23T14:39:38;22.04;37.01
70708;SHT30;58277;47.316;18.908;2023-03-23T14:42:17;21.78;37.04
70708;SHT30;58277;47.316;18.908;2023-03-23T14:44:46;21.35;36.57
70708;SHT30;58277;47.316;18.908;2023-03-23T14:49:45;21.33;37.04
70708;SHT30;58277;47.316;18.908;2023-03-23T14:52:28;21.09;37.06
70708;SHT30;58277;47.316;18.908;2023-03-23T14:54:51;21.19;37.80
70708;SHT30;58277;47.316;18.908;2023-03-23T14:57:15;21.18;37.85
70708;SHT30;58277;47.316;18.908;2023-03-23T14:59:46;21.09;38.28
70708;SHT30;58277;47.316;18.908;2023-03-23T15:02:38;21.01;39.18
70708;SHT30;58277;47.316;18.908;2023-03-23T15:05:09;21.02;38.12
70708;SHT30;58277;47.316;18.908;2023-03-23T15:07:36;20.94;37.99
70708;SHT30;58277;47.316;18.908;2023-03-23T15:09:58;21.03;38.15
70708;SHT30;58277;47.316;18.908;2023-03-23T15:12:25;20.84;38.61
70708;SHT30;58277;47.316;18.908;2023-03-23T15:14:51;20.80;38.30
70708;SHT30;58277;47.316;18.908;2023-03-23T15:17:22;20.58;38.89
70708;SHT30;58277;47.316;18.908;2023-03-23T15:19:45;20.51;38.87
70708;SHT30;58277;47.316;18.908;2023-03-23T15:24:47;20.37;39.75
70708;SHT30;58277;47.316;18.908;2023-03-23T15:29:52;20.37;39.25
70708;SHT30;58277;47.316;18.908;2023-03-23T15:32:21;20.37;39.69
70708;SHT30;58277;47.316;18.908;2023-03-23T15:34:44;20.40;39.74
70708;SHT30;58277;47.316;18.908;2023-03-23T15:37:24;20.30;39.85
70708;SHT30;58277;47.316;18.908;2023-03-23T15:39:47;20.19;40.16
70708;SHT30;58277;47.316;18.908;2023-03-23T15:44:56;19.96;40.44
70708;SHT30;58277;47.316;18.908;2023-03-23T15:47:19;19.99;40.36
70708;SHT30;58277;47.316;18.908;2023-03-23T15:49:44;19.90;40.50
70708;SHT30;58277;47.316;18.908;2023-03-23T15:52:09;19.98;40.78
70708;SHT30;58277;47.316;18.908;2023-03-23T15:54:32;19.96;40.48
70708;SHT30;58277;47.316;18.908;2023-03-23T15:56:53;19.85;40.96
70708;SHT30;58277;47.316;18.908;2023-03-23T15:59:15;19.72;40.74
70708;SHT30;58277;47.316;18.908;2023-03-23T16:01:40;19.53;41.59
70708;SHT30;58277;47.316;18.908;2023-03-23T16:04:16;19.53;41.44
70708;SHT30;58277;47.316;18.908;2023-03-23T16:06:39;19.23;41.51
70708;SHT30;58277;47.316;18.908;2023-03-23T16:09:04;19.13;42.44
70708;SHT30;58277;47.316;18.908;2023-03-23T16:11:28;18.98;42.65
70708;SHT30;58277;47.316;18.908;2023-03-23T16:13:52;18.84;43.02
70708;SHT30;58277;47.316;18.908;2023-03-23T16:16:18;18.52;43.44
70708;SHT30;58277;47.316;18.908;2023-03-23T16:18:43;18.48;43.89
70708;SHT30;58277;47.316;18.908;2023-03-23T16:21:06;18.27;44.30
70708;SHT30;58277;47.316;18.908;2023-03-23T16:23:28;18.20;44.49
70708;SHT30;58277;47.316;18.908;2023-03-23T16:25:51;18.09;44.88
70708;SHT30;58277;47.316;18.908;2023-03-23T16:28:15;18.00;44.92
70708;SHT30;58277;47.316;18.908;2023-03-23T16:30:39;17.78;45.81
70708;SHT30;58277;47.316;18.908;2023-03-23T16:33:02;17.69;45.52
70708;SHT30;58277;47.316;18.908;2023-03-23T16:35:25;17.69;45.77
70708;SHT30;58277;47.316;18.908;2023-03-23T16:37:50;17.68;46.14
70708;SHT30;58277;47.316;18.908;2023-03-23T16:40:30;17.69;46.07
70708;SHT30;58277;47.316;18.908;2023-03-23T16:42:53;17.55;46.60
70708;SHT30;58277;47.316;18.908;2023-03-23T16:45:16;17.48;46.67
70708;SHT30;58277;47.316;18.908;2023-03-23T16:47:40;17.42;46.70
70708;SHT30;58277;47.316;18.908;2023-03-23T16:50:06;17.27;47.48
70708;SHT30;58277;47.316;18.908;2023-03-23T16:52:29;17.10;47.78
70708;SHT30;58277;47.316;18.908;2023-03-23T16:54:52;17.03;48.18
70708;SHT30;58277;47.316;18.908;2023-03-23T16:57:15;16.91;48.48
70708;SHT30;58277;47.316;18.908;2023-03-23T16:59:38;16.73;48.82
70708;SHT30;58277;47.316;18.908;2023-03-23T17:02:00;16.65;49.47
70708;SHT30;58277;47.316;18.908;2023-03-23T17:04:25;16.45;50.10
70708;SHT30;58277;47.316;18.908;2023-03-23T17:06:47;16.39;50.06
70708;SHT30;58277;47.316;18.908;2023-03-23T17:09:13;16.38;50.34
70708;SHT30;58277;47.316;18.908;2023-03-23T17:11:35;16.36;50.20
70708;SHT30;58277;47.316;18.908;2023-03-23T17:13:59;16.31;50.32
70708;SHT30;58277;47.316;18.908;2023-03-23T17:16:21;16.29;50.35
70708;SHT30;58277;47.316;18.908;2023-03-23T17:18:44;16.12;50.93
70708;SHT30;58277;47.316;18.908;2023-03-23T17:21:07;16.02;51.16
70708;SHT30;58277;47.316;18.908;2023-03-23T17:23:30;15.94;51.33
70708;SHT30;58277;47.316;18.908;2023-03-23T17:25:53;16.02;51.28
70708;SHT30;58277;47.316;18.908;2023-03-23T17:28:15;15.96;51.36
70708;SHT30;58277;47.316;18.908;2023-03-23T17:30:42;16.07;51.06
70708;SHT30;58277;47.316;18.908;2023-03-23T17:33:05;16.04;51.06
70708;SHT30;58277;47.316;18.908;2023-03-23T17:35:28;15.98;51.25